Time;durP1;ratioP1;P1;durP2;ratioP2;P2;SDS_P1;SDS_P2;PMS_P1;PMS_P2;Temp;Humidity;BMP_temperature;BMP_pressure;BME280_temperature;BME280_humidity;BME280_pressure;Samples;Min_cycle;Max_cycle;Signal;HPM_P1;HPM_P2
2022/10/23 00:00:42;;;;;;;108.50;41.23;;;;;;;11.41;100.00;99845.00;4227097;28;20239;-67
2022/10/23 00:03:09;;;;;;;103.97;41.27;;;;;;;11.40;100.00;99845.16;4218004;28;20343;-66
2022/10/23 00:05:39;;;;;;;104.77;41.47;;;;;;;11.41;100.00;99844.16;4224306;28;20243;-65
2022/10/23 00:08:06;;;;;;;102.60;41.40;;;;;;;11.43;100.00;99854.66;4216552;28;20238;-66
2022/10/23 00:10:32;;;;;;;94.97;40.57;;;;;;;11.40;100.00;99843.34;4224275;28;20228;-66
2022/10/23 00:12:59;;;;;;;101.33;41.87;;;;;;;11.39;100.00;99844.31;4219338;28;22806;-65
2022/10/23 00:15:26;;;;;;;93.83;41.53;;;;;;;11.45;100.00;99855.31;4219217;28;20583;-68
2022/10/23 00:17:53;;;;;;;106.27;42.77;;;;;;;11.47;100.00;99858.66;4220798;28;20248;-66
2022/10/23 00:20:20;;;;;;;98.40;40.27;;;;;;;11.47;100.00;99858.66;4222309;28;20259;-67
2022/10/23 00:22:47;;;;;;;104.73;42.20;;;;;;;11.47;100.00;99853.31;4215764;28;21656;-66
2022/10/23 00:25:15;;;;;;;99.77;40.90;;;;;;;11.43;100.00;99860.00;4217554;28;20257;-66
2022/10/23 00:27:41;;;;;;;102.90;39.87;;;;;;;11.44;100.00;99858.97;4221929;28;20343;-66
2022/10/23 00:30:09;;;;;;;100.17;41.57;;;;;;;11.50;100.00;99861.00;4221659;28;20308;-68
2022/10/23 00:32:36;;;;;;;97.13;37.67;;;;;;;11.54;100.00;99864.97;4225727;28;20251;-66
2022/10/23 00:35:03;;;;;;;99.27;38.93;;;;;;;11.58;100.00;99866.31;4226272;28;20359;-66
2022/10/23 00:37:31;;;;;;;92.23;37.30;;;;;;;11.59;100.00;99871.50;4216468;28;20246;-66
2022/10/23 00:39:58;;;;;;;102.43;37.80;;;;;;;11.49;100.00;99864.66;4228616;28;20240;-66
2022/10/23 00:42:24;;;;;;;93.13;35.13;;;;;;;11.46;100.00;99870.31;4217409;28;20296;-66
2022/10/23 00:44:51;;;;;;;95.87;36.20;;;;;;;11.54;100.00;99878.31;4225364;28;20231;-69
2022/10/23 00:47:18;;;;;;;107.03;35.97;;;;;;;11.55;100.00;99874.66;4221575;28;20818;-66
2022/10/23 00:49:44;;;;;;;101.03;35.63;;;;;;;11.52;100.00;99880.28;4223712;28;21173;-66
2022/10/23 00:52:11;;;;;;;110.93;38.07;;;;;;;11.59;100.00;99876.81;4225405;28;20231;-67
2022/10/23 00:54:40;;;;;;;106.00;36.67;;;;;;;11.56;100.00;99886.97;4225418;28;21607;-67
2022/10/23 00:57:11;;;;;;;95.80;35.13;;;;;;;11.69;100.00;99887.31;4224054;28;20261;-71
2022/10/23 00:59:39;;;;;;;114.00;37.33;;;;;;;11.65;100.00;99887.81;4233563;28;20261;-68
2022/10/23 01:02:05;;;;;;;114.60;36.60;;;;;;;11.66;100.00;99892.13;4227504;28;20239;-68
2022/10/23 01:04:33;;;;;;;113.77;36.23;;;;;;;11.70;100.00;99898.81;4228225;28;20231;-70
2022/10/23 01:07:13;;;;;;;127.00;38.03;;;;;;;11.66;100.00;99900.13;4239078;28;20870;-69
2022/10/23 01:09:46;;;;;;;124.63;37.57;;;;;;;11.63;100.00;99901.28;4226214;28;20238;-70
2022/10/23 01:12:41;;;;;;;110.23;35.27;;;;;;;11.70;100.00;99899.63;4226888;28;20233;-69
2022/10/23 01:15:53;;;;;;;117.77;36.13;;;;;;;11.70;100.00;99904.13;4230429;28;20541;-70
2022/10/23 01:18:25;;;;;;;121.63;37.23;;;;;;;11.68;100.00;99901.63;4197379;28;20395;-70
2022/10/23 01:20:59;;;;;;;117.73;37.77;;;;;;;11.65;100.00;99901.13;4191370;28;20308;-69
2022/10/23 01:23:46;;;;;;;114.90;36.70;;;;;;;11.69;100.00;99905.97;4211534;28;20509;-70
2022/10/23 01:26:58;;;;;;;117.83;35.60;;;;;;;11.75;100.00;99918.66;4230071;28;21911;-68
2022/10/23 01:29:31;;;;;;;116.17;35.77;;;;;;;11.75;100.00;99916.00;4220437;28;21780;-69
2022/10/23 01:32:08;;;;;;;120.60;37.63;;;;;;;11.71;100.00;99914.66;4209810;28;20245;-70
2022/10/23 01:35:07;;;;;;;123.80;36.63;;;;;;;11.67;100.00;99918.63;4217603;28;20231;-68
2022/10/23 01:37:41;;;;;;;128.67;38.27;;;;;;;11.70;100.00;99910.28;4209095;28;20353;-69
2022/10/23 01:40:18;;;;;;;126.47;38.00;;;;;;;11.73;100.00;99910.00;4231693;28;20406;-69
2022/10/23 01:42:49;;;;;;;115.47;36.07;;;;;;;11.77;100.00;99913.13;4197705;28;20238;-68
2022/10/23 01:45:40;;;;;;;123.20;36.60;;;;;;;11.73;100.00;99915.31;4231680;28;20244;-69
2022/10/23 01:48:09;;;;;;;121.60;38.27;;;;;;;11.73;100.00;99915.31;4235442;28;20463;-68
2022/10/23 01:50:38;;;;;;;126.90;36.93;;;;;;;11.74;100.00;99914.31;4214873;28;20330;-70
2022/10/23 01:53:05;;;;;;;123.83;36.33;;;;;;;11.73;100.00;99915.31;4215031;28;22462;-71
2022/10/23 01:55:32;;;;;;;122.47;36.90;;;;;;;11.77;100.00;99913.97;4232770;28;20228;-70
2022/10/23 01:58:01;;;;;;;128.80;37.13;;;;;;;11.73;100.00;99915.31;4225771;28;20232;-70
2022/10/23 02:00:28;;;;;;;127.20;38.13;;;;;;;11.70;100.00;99920.97;4232296;28;20232;-70
2022/10/23 02:02:56;;;;;;;125.83;37.93;;;;;;;11.72;100.00;99910.97;4223038;28;23746;-70
2022/10/23 02:05:27;;;;;;;124.90;38.73;;;;;;;11.73;100.00;99917.97;4215218;28;20240;-68
2022/10/23 02:07:54;;;;;;;124.00;38.37;;;;;;;11.66;100.00;99924.97;4219436;28;20307;-69
2022/10/23 02:10:21;;;;;;;136.77;39.33;;;;;;;11.69;100.00;99918.47;4228477;28;20241;-68
2022/10/23 02:12:56;;;;;;;127.20;40.37;;;;;;;11.62;100.00;99924.47;4228397;28;20347;-70
2022/10/23 02:15:47;;;;;;;147.43;41.30;;;;;;;11.66;100.00;99918.78;4217562;28;22265;-69
2022/10/23 02:18:37;;;;;;;131.47;39.67;;;;;;;11.69;100.00;99921.97;4222413;28;20985;-68
2022/10/23 02:21:13;;;;;;;133.13;40.60;;;;;;;11.68;100.00;99936.28;4218351;28;23632;-68
2022/10/23 02:24:00;;;;;;;134.80;43.00;;;;;;;11.64;100.00;99940.28;4233122;28;26328;-67
2022/10/23 02:26:32;;;;;;;128.50;42.43;;;;;;;11.65;100.00;99943.78;4231856;28;20481;-71
2022/10/23 02:29:13;;;;;;;122.37;41.00;;;;;;;11.69;100.00;99937.13;4220135;28;21114;-68
2022/10/23 02:31:39;;;;;;;133.73;42.30;;;;;;;11.74;100.00;99943.63;4255552;28;20486;-67
2022/10/23 02:34:06;;;;;;;134.37;42.03;;;;;;;11.71;100.00;99945.81;4226758;28;20436;-68
2022/10/23 02:36:33;;;;;;;134.63;42.93;;;;;;;11.76;100.00;99946.13;4228743;28;20259;-67
2022/10/23 02:38:59;;;;;;;124.93;41.50;;;;;;;11.75;100.00;99945.31;4219781;28;20343;-70
2022/10/23 02:41:40;;;;;;;147.40;45.40;;;;;;;11.70;100.00;99950.28;4232794;28;20253;-68
2022/10/23 02:44:20;;;;;;;124.30;42.37;;;;;;;11.77;100.00;99953.94;4235771;28;20373;-68
2022/10/23 02:47:02;;;;;;;151.17;44.77;;;;;;;11.74;100.00;99958.78;4229604;28;22896;-69
2022/10/23 02:49:34;;;;;;;156.03;45.53;;;;;;;11.78;100.00;99946.81;4220778;28;20492;-68
2022/10/23 02:52:33;;;;;;;146.80;44.67;;;;;;;11.71;100.00;99951.97;4224078;28;21327;-68
2022/10/23 02:55:36;;;;;;;141.63;44.63;;;;;;;11.72;100.00;99956.28;4234069;28;20673;-67
2022/10/23 02:58:09;;;;;;;144.47;44.17;;;;;;;11.73;100.00;99957.97;4236199;28;20299;-68
2022/10/23 03:00:38;;;;;;;128.83;42.83;;;;;;;11.72;100.00;99950.13;4234868;28;20415;-68
2022/10/23 03:03:18;;;;;;;154.13;43.73;;;;;;;11.72;100.00;99950.94;4222246;28;20608;-67
2022/10/23 03:05:45;;;;;;;141.03;46.33;;;;;;;11.68;100.00;99954.94;4211906;28;20239;-67
2022/10/23 03:08:12;;;;;;;145.17;46.30;;;;;;;11.66;100.00;99943.63;4243436;28;20326;-68
2022/10/23 03:10:40;;;;;;;158.47;45.70;;;;;;;11.62;100.00;99950.28;4219577;28;20589;-67
2022/10/23 03:13:07;;;;;;;137.07;43.40;;;;;;;11.67;100.00;99953.28;4216069;28;20229;-67
2022/10/23 03:15:33;;;;;;;160.37;46.23;;;;;;;11.65;100.00;99952.59;4214154;28;20228;-68
2022/10/23 03:18:00;;;;;;;162.07;45.17;;;;;;;11.68;100.00;99949.59;4219937;28;20252;-68
2022/10/23 03:20:27;;;;;;;151.20;45.17;;;;;;;11.58;100.00;99960.41;4220361;28;20318;-68
2022/10/23 03:22:53;;;;;;;155.43;46.97;;;;;;;11.59;100.00;99953.28;4227689;28;20229;-69
2022/10/23 03:25:20;;;;;;;141.73;45.80;;;;;;;11.61;100.00;99951.25;4217694;28;23593;-67
2022/10/23 03:27:46;;;;;;;149.57;46.93;;;;;;;11.69;100.00;99956.63;4219744;28;21473;-67
2022/10/23 03:30:13;;;;;;;164.13;47.00;;;;;;;11.66;100.00;99951.63;4217031;28;22294;-68
2022/10/23 03:32:39;;;;;;;161.27;47.37;;;;;;;11.63;100.00;99957.25;4235682;28;21884;-67
2022/10/23 03:35:06;;;;;;;153.67;47.90;;;;;;;11.64;100.00;99947.47;4227902;28;22338;-68
2022/10/23 03:37:33;;;;;;;172.20;50.40;;;;;;;11.64;100.00;99950.94;4214903;28;20232;-69
2022/10/23 03:39:59;;;;;;;158.57;47.63;;;;;;;11.72;100.00;99956.28;4220926;28;20236;-67
2022/10/23 03:42:26;;;;;;;155.13;49.33;;;;;;;11.61;100.00;99954.78;4217419;28;20232;-68
2022/10/23 03:44:53;;;;;;;158.27;48.53;;;;;;;11.67;100.00;99953.28;4218425;28;20345;-68
2022/10/23 03:47:19;;;;;;;158.33;48.13;;;;;;;11.65;100.00;99960.59;4216017;28;20299;-66
2022/10/23 03:49:46;;;;;;;138.60;45.13;;;;;;;11.60;100.00;99957.59;4217487;28;20363;-67
2022/10/23 03:52:13;;;;;;;139.83;45.33;;;;;;;11.57;100.00;99968.59;4229230;28;20231;-68
2022/10/23 03:54:39;;;;;;;148.83;46.47;;;;;;;11.52;100.00;99965.56;4218505;28;21238;-70
2022/10/23 03:57:05;;;;;;;152.40;46.87;;;;;;;11.59;100.00;99974.59;4217496;28;20289;-67
2022/10/23 03:59:32;;;;;;;144.70;45.40;;;;;;;11.55;100.00;99976.75;4219051;28;22157;-67
2022/10/23 04:01:58;;;;;;;148.03;46.63;;;;;;;11.54;100.00;99974.22;4220344;28;21070;-68
2022/10/23 04:04:25;;;;;;;133.80;43.97;;;;;;;11.52;100.00;99986.88;4217391;28;22281;-69
2022/10/23 04:06:52;;;;;;;134.87;43.73;;;;;;;11.58;100.00;99986.25;4227816;28;20261;-68
2022/10/23 04:09:18;;;;;;;128.53;43.80;;;;;;;11.55;100.00;99986.56;4227703;28;20601;-67
2022/10/23 04:11:45;;;;;;;139.20;43.70;;;;;;;11.52;100.00;100006.38;4222546;28;22954;-68
2022/10/23 04:14:12;;;;;;;124.23;42.47;;;;;;;11.56;100.00;100005.03;4220322;28;21207;-68
2022/10/23 04:16:39;;;;;;;132.20;42.67;;;;;;;11.51;100.00;100006.53;4221620;28;21554;-69
2022/10/23 04:19:05;;;;;;;130.70;43.10;;;;;;;11.57;100.00;100003.25;4220080;28;20308;-68
2022/10/23 04:21:32;;;;;;;135.87;43.27;;;;;;;11.55;100.00;99992.72;4216136;28;20433;-69
2022/10/23 04:23:58;;;;;;;132.23;40.70;;;;;;;11.48;100.00;99991.72;4218220;28;20232;-68
2022/10/23 04:26:24;;;;;;;121.03;41.23;;;;;;;11.58;100.00;100002.22;4229605;28;22320;-68
2022/10/23 04:28:51;;;;;;;130.30;40.93;;;;;;;11.49;100.00;100008.53;4221877;28;20686;-68
2022/10/23 04:31:17;;;;;;;130.27;40.57;;;;;;;11.38;100.00;100002.50;4214344;28;20251;-66
2022/10/23 04:33:44;;;;;;;138.40;40.57;;;;;;;11.34;100.00;100011.81;4223286;28;20235;-68
2022/10/23 04:36:10;;;;;;;138.20;41.13;;;;;;;11.32;100.00;100013.78;4214436;28;20231;-68
2022/10/23 04:38:37;;;;;;;135.60;41.07;;;;;;;11.27;100.00;100010.78;4217907;28;20265;-67
2022/10/23 04:41:03;;;;;;;129.30;39.00;;;;;;;11.28;100.00;100012.44;4220442;28;20235;-67
2022/10/23 04:43:31;;;;;;;140.43;41.17;;;;;;;11.25;100.00;100010.09;4220616;28;20238;-66
2022/10/23 04:45:58;;;;;;;150.77;42.13;;;;;;;11.16;100.00;100013.72;4214815;28;20331;-67
2022/10/23 04:48:24;;;;;;;149.97;41.37;;;;;;;11.14;100.00;100016.56;4214811;28;20237;-67
2022/10/23 04:50:59;;;;;;;129.10;40.13;;;;;;;11.18;100.00;100019.72;4228451;28;20306;-67
2022/10/23 04:53:26;;;;;;;130.83;40.97;;;;;;;11.13;100.00;100019.38;4213574;28;20235;-68
2022/10/23 04:55:55;;;;;;;133.30;39.30;;;;;;;11.13;100.00;100017.53;4218586;28;20263;-67
2022/10/23 04:58:22;;;;;;;136.20;40.53;;;;;;;11.08;100.00;100019.03;4219243;28;22835;-67
2022/10/23 05:00:49;;;;;;;122.97;39.30;;;;;;;11.07;100.00;100023.50;4253416;28;20246;-67
2022/10/23 05:03:16;;;;;;;136.93;41.47;;;;;;;11.13;100.00;100025.53;4302079;28;21811;-68
2022/10/23 05:05:43;;;;;;;135.27;39.17;;;;;;;11.10;100.00;100022.38;4210652;28;20242;-69
2022/10/23 05:08:10;;;;;;;144.53;40.57;;;;;;;11.09;100.00;100023.34;4325985;28;20259;-66
2022/10/23 05:10:43;;;;;;;131.83;40.27;;;;;;;11.10;100.00;100019.69;4407994;28;22525;-70
2022/10/23 05:13:10;;;;;;;126.23;39.53;;;;;;;11.14;100.00;100019.22;4384092;28;20262;-66
2022/10/23 05:15:37;;;;;;;124.00;38.67;;;;;;;11.15;100.00;100022.72;4382121;28;20805;-68
2022/10/23 05:18:34;;;;;;;130.07;39.90;;;;;;;11.06;100.00;100027.16;4370096;28;20332;-67
2022/10/23 05:21:21;;;;;;;122.87;38.93;;;;;;;11.04;100.00;100021.16;4372124;28;20230;-69
2022/10/23 05:23:48;;;;;;;126.00;37.33;;;;;;;10.98;100.00;100027.13;4228820;28;20235;-69
2022/10/23 05:26:15;;;;;;;130.50;38.40;;;;;;;11.00;100.00;100030.44;4241647;28;21140;-62
2022/10/23 05:28:41;;;;;;;117.33;38.47;;;;;;;11.05;100.00;100032.63;4242482;28;20243;-70
2022/10/23 05:31:08;;;;;;;123.30;38.07;;;;;;;11.01;100.00;100031.28;4282748;28;20892;-70
2022/10/23 05:33:35;;;;;;;124.70;38.93;;;;;;;11.02;100.00;100032.94;4249817;28;20439;-72
2022/10/23 05:36:02;;;;;;;119.83;38.70;;;;;;;10.99;100.00;100040.25;4317615;28;20415;-73
2022/10/23 05:38:32;;;;;;;130.57;40.70;;;;;;;11.01;100.00;100048.09;4284215;28;20335;-74
2022/10/23 05:40:58;;;;;;;124.20;40.03;;;;;;;11.02;100.00;100043.59;4323644;28;20233;-70
2022/10/23 05:43:26;;;;;;;135.90;39.90;;;;;;;11.05;100.00;100049.47;4371795;28;20226;-70
2022/10/23 05:45:53;;;;;;;116.57;37.63;;;;;;;11.03;100.00;100051.44;4353247;28;20652;-76
2022/10/23 05:48:20;;;;;;;124.53;39.97;;;;;;;10.99;100.00;100055.41;4332644;28;21141;-72
2022/10/23 05:51:08;;;;;;;133.80;39.67;;;;;;;10.96;100.00;100053.91;4325747;28;20259;-67
2022/10/23 05:53:35;;;;;;;124.53;38.93;;;;;;;10.95;100.00;100046.88;4226705;28;20262;-68
2022/10/23 05:56:08;;;;;;;119.50;37.63;;;;;;;10.90;100.00;100051.03;4250385;28;20350;-70
2022/10/23 05:58:37;;;;;;;114.63;38.33;;;;;;;10.92;100.00;100054.38;4291681;28;20248;-73
2022/10/23 06:01:09;;;;;;;112.80;37.97;;;;;;;10.88;100.00;100053.81;4276359;28;20234;-70
2022/10/23 06:03:37;;;;;;;110.70;36.70;;;;;;;10.86;100.00;100054.97;4256504;28;20233;-67
2022/10/23 06:06:05;;;;;;;118.53;38.83;;;;;;;10.85;100.00;100054.16;4252148;28;23337;-67
2022/10/23 06:08:32;;;;;;;107.43;36.80;;;;;;;10.87;100.00;100048.69;4245486;28;20746;-66
2022/10/23 06:11:11;;;;;;;106.73;35.00;;;;;;;10.91;100.00;100053.53;4227106;28;21854;-70
2022/10/23 06:13:38;;;;;;;108.00;36.23;;;;;;;10.96;100.00;100058.38;4245358;28;20724;-67
2022/10/23 06:16:13;;;;;;;104.83;36.03;;;;;;;10.98;100.00;100061.75;4255691;28;20314;-68
2022/10/23 06:18:40;;;;;;;99.87;36.10;;;;;;;11.05;100.00;100064.59;4240796;28;20376;-66
2022/10/23 06:21:07;;;;;;;102.17;37.30;;;;;;;10.98;100.00;100067.88;4227732;28;20387;-69
2022/10/23 06:23:36;;;;;;;99.20;36.67;;;;;;;10.90;100.00;100073.16;4257404;28;20234;-70
2022/10/23 06:26:04;;;;;;;101.90;34.77;;;;;;;10.97;100.00;100076.03;4231375;28;20301;-67
2022/10/23 06:28:31;;;;;;;85.93;35.10;;;;;;;11.02;100.00;100078.22;4227703;28;21612;-67
2022/10/23 06:30:58;;;;;;;93.70;34.10;;;;;;;11.05;100.00;100068.09;4237534;28;20294;-65
2022/10/23 06:33:24;;;;;;;89.50;34.17;;;;;;;11.04;100.00;100074.41;4234955;28;20721;-64
2022/10/23 06:35:55;;;;;;;85.40;31.63;;;;;;;11.13;100.00;100070.78;4245883;28;20240;-67
2022/10/23 06:38:21;;;;;;;88.73;29.87;;;;;;;11.10;100.00;100073.78;4231936;28;20668;-67
2022/10/23 06:40:53;;;;;;;80.70;31.50;;;;;;;11.03;100.00;100075.41;4240601;28;20292;-68
2022/10/23 06:43:20;;;;;;;80.80;30.33;;;;;;;11.13;100.00;100083.28;4222786;28;22456;-67
2022/10/23 06:45:47;;;;;;;68.77;29.07;;;;;;;11.35;100.00;100082.72;4228643;28;20235;-67
2022/10/23 06:48:14;;;;;;;71.07;28.10;;;;;;;11.45;100.00;100092.44;4231859;28;20231;-66
2022/10/23 06:50:40;;;;;;;69.57;28.60;;;;;;;11.36;100.00;100089.75;4230966;28;20457;-66
2022/10/23 06:53:08;;;;;;;73.70;29.03;;;;;;;11.29;100.00;100099.34;4220574;28;20309;-67
2022/10/23 06:55:35;;;;;;;68.33;27.10;;;;;;;11.27;100.00;100101.34;4225690;28;20254;-67
2022/10/23 06:58:09;;;;;;;62.87;27.43;;;;;;;11.32;100.00;100107.03;4231660;28;20352;-64
2022/10/23 07:00:39;;;;;;;68.93;27.53;;;;;;;11.31;100.00;100105.38;4234571;28;20219;-65
2022/10/23 07:03:07;;;;;;;69.03;27.07;;;;;;;11.36;100.00;100104.91;4227606;28;20290;-64
2022/10/23 07:05:33;;;;;;;77.60;28.50;;;;;;;11.33;100.00;100105.19;4227339;28;25554;-64
2022/10/23 07:08:00;;;;;;;75.47;29.77;;;;;;;11.26;100.00;100105.00;4228577;28;21160;-65
2022/10/23 07:10:27;;;;;;;66.77;29.30;;;;;;;11.39;100.00;100100.06;4222475;28;20235;-65
2022/10/23 07:12:59;;;;;;;72.47;30.90;;;;;;;11.35;100.00;100095.22;4222027;28;20342;-66
2022/10/23 07:15:26;;;;;;;75.07;31.60;;;;;;;11.36;100.00;100097.72;4222772;28;20942;-65
2022/10/23 07:17:53;;;;;;;78.73;30.93;;;;;;;11.39;100.00;100100.06;4211926;28;20231;-65
2022/10/23 07:20:20;;;;;;;71.00;29.37;;;;;;;11.43;100.00;100100.59;4249588;28;20235;-68
2022/10/23 07:22:51;;;;;;;72.13;31.00;;;;;;;11.45;100.00;100098.63;4227161;28;20739;-66
2022/10/23 07:25:18;;;;;;;79.40;29.50;;;;;;;11.56;100.00;100100.97;4252112;28;22043;-64
2022/10/23 07:27:44;;;;;;;74.80;28.20;;;;;;;11.67;100.00;100102.53;4230741;28;20295;-67
2022/10/23 07:30:12;;;;;;;72.17;29.83;;;;;;;11.58;100.00;100109.66;4237923;28;20353;-68
2022/10/23 07:32:39;;;;;;;70.87;30.10;;;;;;;11.64;100.00;100105.53;4224058;28;21204;-65
2022/10/23 07:35:06;;;;;;;79.37;30.23;;;;;;;11.61;100.00;100106.69;4239062;28;22948;-66
2022/10/23 07:37:33;;;;;;;70.97;29.73;;;;;;;11.68;100.00;100101.53;4226915;28;20235;-66
2022/10/23 07:40:00;;;;;;;81.60;31.10;;;;;;;11.70;100.00;100101.38;4224698;28;20867;-65
2022/10/23 07:42:26;;;;;;;75.13;31.50;;;;;;;11.90;100.00;100094.00;4248744;28;20689;-66
2022/10/23 07:44:53;;;;;;;71.53;30.77;;;;;;;12.04;100.00;100096.03;4260284;28;20241;-65
2022/10/23 07:47:20;;;;;;;65.67;29.70;;;;;;;12.22;100.00;100086.06;4230650;28;21162;-67
2022/10/23 07:49:47;;;;;;;63.63;29.97;;;;;;;12.44;100.00;100089.94;4231596;28;23058;-64
2022/10/23 07:52:13;;;;;;;59.17;28.17;;;;;;;12.71;100.00;100097.78;4239373;28;20298;-66
2022/10/23 07:54:40;;;;;;;60.83;27.33;;;;;;;13.08;100.00;100095.41;4224272;28;23751;-70
2022/10/23 07:57:08;;;;;;;54.97;26.50;;;;;;;13.03;100.00;100094.25;4233646;28;20234;-66
2022/10/23 07:59:34;;;;;;;48.17;23.43;;;;;;;13.06;100.00;100089.41;4231553;28;20235;-65
2022/10/23 08:02:03;;;;;;;50.73;23.90;;;;;;;12.91;100.00;100085.75;4227827;28;20313;-70
2022/10/23 08:04:31;;;;;;;51.27;24.80;;;;;;;12.85;100.00;100086.41;4219636;28;21078;-70
2022/10/23 08:06:59;;;;;;;47.67;23.50;;;;;;;12.89;100.00;100087.75;4224642;28;21104;-68
2022/10/23 08:09:26;;;;;;;61.43;25.00;;;;;;;12.88;100.00;100092.25;4227497;28;21782;-70
2022/10/23 08:11:52;;;;;;;51.83;24.90;;;;;;;12.93;100.00;100088.25;4214526;28;22187;-68
2022/10/23 08:14:19;;;;;;;55.93;25.20;;;;;;;12.85;100.00;100081.94;4238409;28;22301;-72
2022/10/23 08:16:46;;;;;;;49.40;25.17;;;;;;;13.08;100.00;100091.91;4241865;28;21048;-68
2022/10/23 08:19:12;;;;;;;47.40;24.00;;;;;;;13.10;100.00;100088.03;4224895;28;20235;-68
2022/10/23 08:21:39;;;;;;;52.53;24.70;;;;;;;13.14;100.00;100082.38;4224770;28;22477;-66
2022/10/23 08:24:05;;;;;;;49.70;22.97;;;;;;;13.22;100.00;100088.53;4224430;28;20817;-66
2022/10/23 08:26:32;;;;;;;46.23;22.37;;;;;;;13.13;100.00;100096.72;4223760;28;20282;-69
2022/10/23 08:29:00;;;;;;;48.13;22.60;;;;;;;13.16;100.00;100105.25;4227762;28;20334;-67
2022/10/23 08:31:27;;;;;;;56.20;23.03;;;;;;;13.06;100.00;100097.44;4218352;28;20229;-68
2022/10/23 08:33:53;;;;;;;47.57;23.27;;;;;;;13.04;100.00;100104.78;4220305;28;20363;-71
2022/10/23 08:36:25;;;;;;;48.80;23.03;;;;;;;13.10;100.00;100104.06;4223647;28;20632;-63
2022/10/23 08:38:54;;;;;;;54.87;24.40;;;;;;;13.01;100.00;100102.41;4236838;28;20372;-63
2022/10/23 08:41:31;;;;;;;58.50;26.20;;;;;;;13.01;100.00;100107.75;4228463;28;20231;-64
2022/10/23 08:44:27;;;;;;;65.13;27.03;;;;;;;13.04;100.00;100106.59;4220068;28;20293;-65
2022/10/23 08:47:10;;;;;;;64.03;27.90;;;;;;;13.14;100.00;100103.75;4246536;28;20245;-60
2022/10/23 08:49:48;;;;;;;56.07;27.83;;;;;;;13.18;100.00;100108.59;4219239;28;20243;-61
2022/10/23 08:52:21;;;;;;;72.60;28.27;;;;;;;13.26;100.00;100105.88;4235354;28;20820;-66
2022/10/23 08:55:01;;;;;;;64.83;27.47;;;;;;;13.38;100.00;100108.25;4243806;28;21700;-63
2022/10/23 08:57:34;;;;;;;58.33;26.97;;;;;;;13.44;100.00;100112.91;4222832;28;20268;-63
2022/10/23 09:00:10;;;;;;;53.50;25.73;;;;;;;13.33;100.00;100111.41;4204830;28;20260;-62
2022/10/23 09:02:42;;;;;;;68.20;25.77;;;;;;;13.26;100.00;100105.06;4217042;28;20235;-64
2022/10/23 09:05:32;;;;;;;56.77;25.70;;;;;;;13.27;100.00;100109.38;4225145;28;20249;-64
2022/10/23 09:08:21;;;;;;;58.13;26.83;;;;;;;13.26;100.00;100105.88;4235252;28;20232;-63
2022/10/23 09:11:20;;;;;;;65.30;26.03;;;;;;;13.32;100.00;100101.72;4233966;28;21133;-64
2022/10/23 09:14:25;;;;;;;59.33;27.60;;;;;;;13.36;100.00;100103.06;4244171;28;20246;-62
2022/10/23 09:17:10;;;;;;;48.60;25.17;;;;;;;13.50;100.00;100099.66;4233125;28;20618;-64
2022/10/23 09:19:36;;;;;;;52.40;24.30;;;;;;;13.57;100.00;100099.81;4242467;28;20312;-62
2022/10/23 09:22:04;;;;;;;53.73;25.53;;;;;;;13.63;100.00;100101.81;4230939;28;20239;-62
2022/10/23 09:24:32;;;;;;;51.97;25.07;;;;;;;13.74;100.00;100103.25;4236605;28;20228;-68
2022/10/23 09:26:59;;;;;;;60.57;27.00;;;;;;;13.81;100.00;100114.09;4231421;28;22282;-61
2022/10/23 09:29:34;;;;;;;45.30;23.70;;;;;;;13.80;100.00;100118.63;4225082;28;20235;-60
2022/10/23 09:32:05;;;;;;;45.10;23.60;;;;;;;13.70;100.00;100128.69;4216039;28;20242;-63
2022/10/23 09:34:32;;;;;;;42.70;21.17;;;;;;;13.66;100.00;100117.50;4227538;28;20235;-64
2022/10/23 09:37:02;;;;;;;45.40;21.27;;;;;;;13.65;100.00;100123.00;4228126;28;20238;-61
2022/10/23 09:39:33;;;;;;;47.10;22.53;;;;;;;13.67;100.00;100121.00;4229321;28;20421;-60
2022/10/23 09:42:06;;;;;;;41.80;21.73;;;;;;;13.63;100.00;100112.50;4228441;28;20247;-64
2022/10/23 09:44:33;;;;;;;43.57;20.23;;;;;;;13.69;100.00;100119.00;4216182;28;20228;-58
2022/10/23 09:47:10;;;;;;;49.50;21.90;;;;;;;13.86;100.00;100112.59;4242367;28;20229;-62
2022/10/23 09:49:39;;;;;;;48.53;21.73;;;;;;;13.98;100.00;100113.03;4244524;28;20256;-61
2022/10/23 09:52:08;;;;;;;45.57;21.20;;;;;;;14.14;100.00;100120.09;4414926;28;20238;-62
2022/10/23 09:54:44;;;;;;;43.93;21.50;;;;;;;14.19;100.00;100117.75;4294200;28;20483;-60
2022/10/23 09:57:22;;;;;;;47.60;20.67;;;;;;;14.24;100.00;100123.41;4234282;28;25658;-62
2022/10/23 09:59:53;;;;;;;48.13;21.63;;;;;;;14.25;100.00;100111.69;4253371;28;23601;-60
2022/10/23 10:02:25;;;;;;;40.40;19.97;;;;;;;14.33;100.00;100117.00;4243528;28;20323;-61
2022/10/23 10:04:53;;;;;;;37.83;20.50;;;;;;;14.27;100.00;100108.84;4259686;28;20593;-62
2022/10/23 10:07:25;;;;;;;47.00;20.80;;;;;;;14.19;100.00;100112.41;4218580;28;21199;-63
2022/10/23 10:09:53;;;;;;;38.97;20.23;;;;;;;14.19;100.00;100112.41;4249018;28;20323;-64
2022/10/23 10:12:31;;;;;;;48.53;20.50;;;;;;;14.23;100.00;100108.34;4230310;28;20808;-66
2022/10/23 10:15:06;;;;;;;40.47;20.10;;;;;;;14.30;100.00;100109.31;4261944;28;21989;-65
2022/10/23 10:17:38;;;;;;;44.87;19.60;;;;;;;14.17;100.00;100111.75;4266795;28;20238;-67
2022/10/23 10:20:10;;;;;;;37.43;19.17;;;;;;;14.01;100.00;100106.50;4227585;28;20290;-69
2022/10/23 10:23:13;;;;;;;41.83;19.80;;;;;;;13.93;100.00;100112.72;4239028;28;21002;-67
2022/10/23 10:26:02;;;;;;;39.03;18.80;;;;;;;13.87;100.00;100106.22;4184106;28;20235;-66
2022/10/23 10:28:44;;;;;;;32.87;16.63;;;;;;;13.89;100.00;100114.06;4234539;28;20314;-66
2022/10/23 10:31:18;;;;;;;38.70;17.87;;;;;;;13.86;100.00;100109.91;4229929;28;21275;-65
2022/10/23 10:34:11;;;;;;;32.40;15.97;;;;;;;13.91;100.00;100112.88;4234833;28;23254;-67
2022/10/23 10:36:44;;;;;;;36.20;16.50;;;;;;;14.01;100.00;100114.50;4272364;28;20228;-65
2022/10/23 10:39:38;;;;;;;36.47;17.97;;;;;;;14.05;100.00;100115.84;4235773;28;20421;-66
2022/10/23 10:42:23;;;;;;;31.77;16.80;;;;;;;14.08;100.00;100118.16;4243357;28;22458;-65
2022/10/23 10:45:19;;;;;;;29.70;15.77;;;;;;;14.06;100.00;100112.13;4237301;28;20473;-68
2022/10/23 10:47:57;;;;;;;25.30;14.50;;;;;;;14.05;100.00;100105.13;4239848;28;20246;-68
2022/10/23 10:50:42;;;;;;;23.20;13.33;;;;;;;14.14;100.00;100109.41;4250792;28;20395;-67
2022/10/23 10:53:31;;;;;;;32.13;14.60;;;;;;;14.11;100.00;100099.06;4235797;28;21203;-64
2022/10/23 10:55:58;;;;;;;25.07;14.30;;;;;;;14.17;100.00;100103.72;4234285;28;21832;-68
2022/10/23 10:58:39;;;;;;;27.57;14.67;;;;;;;14.10;100.00;100100.91;4231254;28;20674;-68
2022/10/23 11:01:25;;;;;;;31.37;14.57;;;;;;;14.07;100.00;100106.63;4231308;28;20342;-68
2022/10/23 11:04:12;;;;;;;30.10;14.67;;;;;;;13.98;100.00;100106.81;4228537;28;20365;-68
2022/10/23 11:06:40;;;;;;;29.30;15.43;;;;;;;13.88;100.00;100101.69;4239461;28;22092;-69
2022/10/23 11:09:17;;;;;;;28.50;14.57;;;;;;;13.85;100.00;100100.19;4241819;28;20228;-68
2022/10/23 11:11:47;;;;;;;34.40;16.37;;;;;;;13.82;100.00;100105.91;4269633;28;20294;-71
2022/10/23 11:14:19;;;;;;;26.17;15.13;;;;;;;13.71;100.00;100090.25;4254552;28;20843;-67
2022/10/23 11:16:49;;;;;;;33.07;16.80;;;;;;;13.75;100.00;100093.41;4232071;28;20239;-67
2022/10/23 11:19:33;;;;;;;30.53;15.80;;;;;;;13.76;100.00;100085.19;4198128;28;20253;-65